sensor_id;sensor_type;location;lat;lon;timestamp;P1;durP1;ratioP1;P2;durP2;ratioP2
76617;SDS011;65509;42.816;74.648;2023-04-29T00:02:09;31.42;;;5.45;;
76617;SDS011;65509;42.816;74.648;2023-04-29T00:04:35;25.40;;;5.50;;
76617;SDS011;65509;42.816;74.648;2023-04-29T00:07:00;31.67;;;6.18;;
76617;SDS011;65509;42.816;74.648;2023-04-29T00:09:25;32.78;;;6.13;;
76617;SDS011;65509;42.816;74.648;2023-04-29T00:11:51;24.38;;;4.88;;
76617;SDS011;65509;42.816;74.648;2023-04-29T00:14:16;37.00;;;6.47;;
76617;SDS011;65509;42.816;74.648;2023-04-29T00:16:42;21.25;;;4.57;;
76617;SDS011;65509;42.816;74.648;2023-04-29T00:19:07;41.33;;;6.95;;
76617;SDS011;65509;42.816;74.648;2023-04-29T00:21:33;33.30;;;6.88;;
76617;SDS011;65509;42.816;74.648;2023-04-29T00:23:58;24.55;;;4.88;;
76617;SDS011;65509;42.816;74.648;2023-04-29T00:26:26;27.25;;;5.68;;
76617;SDS011;65509;42.816;74.648;2023-04-29T00:28:52;34.47;;;5.85;;
76617;SDS011;65509;42.816;74.648;2023-04-29T00:31:18;42.03;;;6.38;;
76617;SDS011;65509;42.816;74.648;2023-04-29T00:33:43;41.42;;;7.05;;
76617;SDS011;65509;42.816;74.648;2023-04-29T00:36:10;28.63;;;5.85;;
76617;SDS011;65509;42.816;74.648;2023-04-29T00:38:35;34.65;;;5.68;;
76617;SDS011;65509;42.816;74.648;2023-04-29T00:41:01;25.85;;;5.82;;
76617;SDS011;65509;42.816;74.648;2023-04-29T00:43:27;38.58;;;7.15;;
76617;SDS011;65509;42.816;74.648;2023-04-29T00:45:52;32.58;;;6.25;;
76617;SDS011;65509;42.816;74.648;2023-04-29T00:48:18;33.47;;;6.95;;
76617;SDS011;65509;42.816;74.648;2023-04-29T00:50:43;34.25;;;6.45;;
76617;SDS011;65509;42.816;74.648;2023-04-29T00:53:10;32.65;;;5.93;;
76617;SDS011;65509;42.816;74.648;2023-04-29T00:55:37;34.35;;;5.18;;
76617;SDS011;65509;42.816;74.648;2023-04-29T00:58:03;42.30;;;6.22;;
76617;SDS011;65509;42.816;74.648;2023-04-29T01:00:28;30.95;;;5.25;;
76617;SDS011;65509;42.816;74.648;2023-04-29T01:02:54;31.90;;;5.70;;
76617;SDS011;65509;42.816;74.648;2023-04-29T01:05:21;33.85;;;6.22;;
76617;SDS011;65509;42.816;74.648;2023-04-29T01:10:32;32.17;;;5.90;;
76617;SDS011;65509;42.816;74.648;2023-04-29T01:13:03;29.00;;;5.63;;
76617;SDS011;65509;42.816;74.648;2023-04-29T01:15:37;35.20;;;7.88;;
76617;SDS011;65509;42.816;74.648;2023-04-29T01:18:07;37.00;;;6.88;;
76617;SDS011;65509;42.816;74.648;2023-04-29T01:20:34;30.00;;;6.32;;
76617;SDS011;65509;42.816;74.648;2023-04-29T01:22:59;30.98;;;5.57;;
76617;SDS011;65509;42.816;74.648;2023-04-29T01:25:25;32.22;;;6.10;;
76617;SDS011;65509;42.816;74.648;2023-04-29T01:38:16;36.85;;;12.93;;
76617;SDS011;65509;42.816;74.648;2023-04-29T01:40:52;38.90;;;9.73;;
76617;SDS011;65509;42.816;74.648;2023-04-29T01:43:23;38.92;;;8.90;;
76617;SDS011;65509;42.816;74.648;2023-04-29T01:45:51;27.27;;;6.70;;
76617;SDS011;65509;42.816;74.648;2023-04-29T01:48:17;38.60;;;8.48;;
76617;SDS011;65509;42.816;74.648;2023-04-29T01:50:43;30.77;;;6.90;;
76617;SDS011;65509;42.816;74.648;2023-04-29T01:53:08;37.50;;;7.38;;
76617;SDS011;65509;42.816;74.648;2023-04-29T01:55:34;31.05;;;6.93;;
76617;SDS011;65509;42.816;74.648;2023-04-29T01:57:59;42.38;;;7.18;;
76617;SDS011;65509;42.816;74.648;2023-04-29T02:00:25;53.03;;;10.02;;
76617;SDS011;65509;42.816;74.648;2023-04-29T02:02:50;45.47;;;8.25;;
76617;SDS011;65509;42.816;74.648;2023-04-29T02:05:16;38.33;;;7.15;;
76617;SDS011;65509;42.816;74.648;2023-04-29T02:07:41;54.83;;;8.95;;
76617;SDS011;65509;42.816;74.648;2023-04-29T02:10:08;38.35;;;7.80;;
76617;SDS011;65509;42.816;74.648;2023-04-29T02:12:34;41.72;;;8.20;;
76617;SDS011;65509;42.816;74.648;2023-04-29T02:15:00;33.65;;;7.47;;
76617;SDS011;65509;42.816;74.648;2023-04-29T02:17:26;33.28;;;7.60;;
76617;SDS011;65509;42.816;74.648;2023-04-29T02:19:51;41.42;;;7.97;;
76617;SDS011;65509;42.816;74.648;2023-04-29T02:22:19;45.15;;;7.95;;
76617;SDS011;65509;42.816;74.648;2023-04-29T02:24:45;35.70;;;6.72;;
76617;SDS011;65509;42.816;74.648;2023-04-29T02:27:10;36.50;;;7.93;;
76617;SDS011;65509;42.816;74.648;2023-04-29T02:29:35;31.08;;;7.15;;
76617;SDS011;65509;42.816;74.648;2023-04-29T02:32:01;31.77;;;6.53;;
76617;SDS011;65509;42.816;74.648;2023-04-29T02:34:29;32.03;;;6.75;;
76617;SDS011;65509;42.816;74.648;2023-04-29T02:36:57;30.52;;;6.57;;
76617;SDS011;65509;42.816;74.648;2023-04-29T02:39:23;35.03;;;8.23;;
76617;SDS011;65509;42.816;74.648;2023-04-29T02:41:49;28.23;;;5.55;;
76617;SDS011;65509;42.816;74.648;2023-04-29T02:44:14;41.22;;;7.13;;
76617;SDS011;65509;42.816;74.648;2023-04-29T02:46:45;27.45;;;5.63;;
76617;SDS011;65509;42.816;74.648;2023-04-29T02:49:11;24.83;;;6.13;;
76617;SDS011;65509;42.816;74.648;2023-04-29T02:51:40;24.52;;;5.97;;
76617;SDS011;65509;42.816;74.648;2023-04-29T02:54:06;22.17;;;5.15;;
76617;SDS011;65509;42.816;74.648;2023-04-29T02:56:32;30.00;;;6.72;;
76617;SDS011;65509;42.816;74.648;2023-04-29T02:58:57;23.67;;;6.03;;
76617;SDS011;65509;42.816;74.648;2023-04-29T03:01:25;29.38;;;6.15;;
76617;SDS011;65509;42.816;74.648;2023-04-29T03:03:51;35.45;;;6.50;;
76617;SDS011;65509;42.816;74.648;2023-04-29T03:06:17;29.85;;;6.72;;
76617;SDS011;65509;42.816;74.648;2023-04-29T03:08:43;28.17;;;5.88;;
76617;SDS011;65509;42.816;74.648;2023-04-29T03:11:08;35.83;;;6.72;;
76617;SDS011;65509;42.816;74.648;2023-04-29T03:13:34;37.10;;;7.18;;
76617;SDS011;65509;42.816;74.648;2023-04-29T03:15:59;26.05;;;6.20;;
76617;SDS011;65509;42.816;74.648;2023-04-29T03:18:25;28.08;;;6.57;;
76617;SDS011;65509;42.816;74.648;2023-04-29T03:20:51;35.58;;;7.45;;
76617;SDS011;65509;42.816;74.648;2023-04-29T03:23:16;28.02;;;6.05;;
76617;SDS011;65509;42.816;74.648;2023-04-29T03:25:42;34.00;;;6.35;;
76617;SDS011;65509;42.816;74.648;2023-04-29T03:28:08;38.10;;;6.93;;
76617;SDS011;65509;42.816;74.648;2023-04-29T03:30:33;38.95;;;7.75;;
76617;SDS011;65509;42.816;74.648;2023-04-29T03:33:02;30.33;;;6.35;;
76617;SDS011;65509;42.816;74.648;2023-04-29T03:35:28;30.30;;;7.45;;
76617;SDS011;65509;42.816;74.648;2023-04-29T03:37:55;25.30;;;5.85;;
76617;SDS011;65509;42.816;74.648;2023-04-29T03:40:20;25.23;;;6.07;;
76617;SDS011;65509;42.816;74.648;2023-04-29T03:42:46;28.15;;;6.28;;
76617;SDS011;65509;42.816;74.648;2023-04-29T03:45:11;28.05;;;5.72;;
76617;SDS011;65509;42.816;74.648;2023-04-29T03:47:38;39.17;;;7.15;;
76617;SDS011;65509;42.816;74.648;2023-04-29T03:50:04;30.48;;;6.43;;
76617;SDS011;65509;42.816;74.648;2023-04-29T03:52:30;30.92;;;6.90;;
76617;SDS011;65509;42.816;74.648;2023-04-29T03:54:55;30.40;;;6.18;;
76617;SDS011;65509;42.816;74.648;2023-04-29T03:57:21;21.30;;;5.20;;
76617;SDS011;65509;42.816;74.648;2023-04-29T03:59:46;24.70;;;5.30;;
76617;SDS011;65509;42.816;74.648;2023-04-29T04:02:14;23.80;;;4.93;;
76617;SDS011;65509;42.816;74.648;2023-04-29T04:04:40;35.67;;;6.80;;
76617;SDS011;65509;42.816;74.648;2023-04-29T04:07:06;26.10;;;5.43;;
76617;SDS011;65509;42.816;74.648;2023-04-29T04:09:31;37.28;;;7.85;;
76617;SDS011;65509;42.816;74.648;2023-04-29T04:12:00;23.90;;;5.43;;
76617;SDS011;65509;42.816;74.648;2023-04-29T04:14:26;36.05;;;6.90;;
76617;SDS011;65509;42.816;74.648;2023-04-29T04:16:52;34.53;;;5.90;;
76617;SDS011;65509;42.816;74.648;2023-04-29T04:19:20;36.20;;;6.95;;
76617;SDS011;65509;42.816;74.648;2023-04-29T04:21:46;35.45;;;6.60;;
76617;SDS011;65509;42.816;74.648;2023-04-29T04:24:11;40.00;;;6.60;;
76617;SDS011;65509;42.816;74.648;2023-04-29T04:26:36;37.75;;;7.50;;
76617;SDS011;65509;42.816;74.648;2023-04-29T04:29:02;30.63;;;5.80;;
76617;SDS011;65509;42.816;74.648;2023-04-29T04:31:28;40.47;;;6.85;;
76617;SDS011;65509;42.816;74.648;2023-04-29T04:33:54;28.17;;;5.20;;
76617;SDS011;65509;42.816;74.648;2023-04-29T04:36:23;28.45;;;5.55;;
76617;SDS011;65509;42.816;74.648;2023-04-29T04:38:48;33.00;;;5.90;;
76617;SDS011;65509;42.816;74.648;2023-04-29T04:41:14;28.88;;;5.82;;
76617;SDS011;65509;42.816;74.648;2023-04-29T04:43:42;45.17;;;7.32;;
76617;SDS011;65509;42.816;74.648;2023-04-29T04:46:11;29.67;;;5.47;;
76617;SDS011;65509;42.816;74.648;2023-04-29T04:48:37;34.58;;;6.03;;
76617;SDS011;65509;42.816;74.648;2023-04-29T04:51:09;29.85;;;4.88;;
76617;SDS011;65509;42.816;74.648;2023-04-29T04:53:35;38.63;;;6.40;;
76617;SDS011;65509;42.816;74.648;2023-04-29T04:56:01;35.30;;;7.38;;
76617;SDS011;65509;42.816;74.648;2023-04-29T04:58:26;34.17;;;5.30;;
76617;SDS011;65509;42.816;74.648;2023-04-29T05:00:52;32.78;;;6.88;;
76617;SDS011;65509;42.816;74.648;2023-04-29T05:03:20;36.75;;;6.72;;
76617;SDS011;65509;42.816;74.648;2023-04-29T05:05:45;40.28;;;6.10;;
76617;SDS011;65509;42.816;74.648;2023-04-29T05:08:17;38.97;;;6.47;;
76617;SDS011;65509;42.816;74.648;2023-04-29T05:10:42;48.88;;;7.25;;
76617;SDS011;65509;42.816;74.648;2023-04-29T05:13:08;34.17;;;6.55;;
76617;SDS011;65509;42.816;74.648;2023-04-29T05:15:35;39.90;;;7.55;;
76617;SDS011;65509;42.816;74.648;2023-04-29T05:18:00;41.50;;;7.75;;
76617;SDS011;65509;42.816;74.648;2023-04-29T05:20:26;37.75;;;6.47;;
76617;SDS011;65509;42.816;74.648;2023-04-29T05:22:51;31.45;;;6.45;;
76617;SDS011;65509;42.816;74.648;2023-04-29T05:25:17;40.67;;;7.25;;
76617;SDS011;65509;42.816;74.648;2023-04-29T05:27:42;44.55;;;8.38;;
76617;SDS011;65509;42.816;74.648;2023-04-29T05:30:08;48.97;;;8.70;;
76617;SDS011;65509;42.816;74.648;2023-04-29T05:32:33;49.60;;;8.38;;
76617;SDS011;65509;42.816;74.648;2023-04-29T05:34:59;38.80;;;6.82;;
76617;SDS011;65509;42.816;74.648;2023-04-29T05:37:25;34.17;;;6.45;;
76617;SDS011;65509;42.816;74.648;2023-04-29T05:39:55;27.63;;;5.72;;
76617;SDS011;65509;42.816;74.648;2023-04-29T05:42:20;27.35;;;5.65;;
76617;SDS011;65509;42.816;74.648;2023-04-29T05:44:45;27.05;;;6.53;;
76617;SDS011;65509;42.816;74.648;2023-04-29T05:47:11;35.05;;;6.97;;
76617;SDS011;65509;42.816;74.648;2023-04-29T05:49:39;46.67;;;7.07;;
76617;SDS011;65509;42.816;74.648;2023-04-29T05:52:04;41.92;;;6.38;;
76617;SDS011;65509;42.816;74.648;2023-04-29T05:54:31;36.80;;;7.13;;
76617;SDS011;65509;42.816;74.648;2023-04-29T05:56:56;38.33;;;7.55;;
76617;SDS011;65509;42.816;74.648;2023-04-29T05:59:22;34.22;;;6.22;;
76617;SDS011;65509;42.816;74.648;2023-04-29T06:01:47;30.33;;;5.50;;
76617;SDS011;65509;42.816;74.648;2023-04-29T06:04:13;33.60;;;5.90;;
76617;SDS011;65509;42.816;74.648;2023-04-29T06:06:38;43.70;;;7.53;;
76617;SDS011;65509;42.816;74.648;2023-04-29T06:09:04;35.45;;;7.20;;
76617;SDS011;65509;42.816;74.648;2023-04-29T06:11:30;33.42;;;6.40;;
76617;SDS011;65509;42.816;74.648;2023-04-29T06:13:55;33.75;;;6.68;;
76617;SDS011;65509;42.816;74.648;2023-04-29T06:16:22;29.23;;;5.63;;
76617;SDS011;65509;42.816;74.648;2023-04-29T06:18:47;30.90;;;6.00;;
76617;SDS011;65509;42.816;74.648;2023-04-29T06:21:13;30.02;;;5.75;;
76617;SDS011;65509;42.816;74.648;2023-04-29T06:23:42;42.53;;;6.97;;
76617;SDS011;65509;42.816;74.648;2023-04-29T06:26:16;39.90;;;6.43;;
76617;SDS011;65509;42.816;74.648;2023-04-29T06:28:43;24.90;;;5.47;;
76617;SDS011;65509;42.816;74.648;2023-04-29T06:31:08;31.92;;;5.57;;
76617;SDS011;65509;42.816;74.648;2023-04-29T06:33:34;38.72;;;6.82;;
76617;SDS011;65509;42.816;74.648;2023-04-29T06:36:05;29.85;;;5.55;;
76617;SDS011;65509;42.816;74.648;2023-04-29T06:38:31;35.58;;;6.28;;
76617;SDS011;65509;42.816;74.648;2023-04-29T06:40:56;39.35;;;6.13;;
76617;SDS011;65509;42.816;74.648;2023-04-29T06:43:25;34.47;;;5.85;;
76617;SDS011;65509;42.816;74.648;2023-04-29T06:45:53;34.83;;;7.15;;
76617;SDS011;65509;42.816;74.648;2023-04-29T06:48:19;34.72;;;6.15;;
76617;SDS011;65509;42.816;74.648;2023-04-29T06:50:51;47.80;;;8.32;;
76617;SDS011;65509;42.816;74.648;2023-04-29T06:53:17;40.65;;;6.85;;
76617;SDS011;65509;42.816;74.648;2023-04-29T06:55:43;48.00;;;7.07;;
76617;SDS011;65509;42.816;74.648;2023-04-29T06:58:11;39.30;;;6.10;;
76617;SDS011;65509;42.816;74.648;2023-04-29T07:00:37;45.95;;;8.32;;
76617;SDS011;65509;42.816;74.648;2023-04-29T07:03:03;38.75;;;6.93;;
76617;SDS011;65509;42.816;74.648;2023-04-29T07:05:28;28.27;;;6.30;;
76617;SDS011;65509;42.816;74.648;2023-04-29T07:07:55;38.92;;;5.95;;
76617;SDS011;65509;42.816;74.648;2023-04-29T07:10:20;41.72;;;6.28;;
76617;SDS011;65509;42.816;74.648;2023-04-29T07:12:46;31.92;;;6.45;;
76617;SDS011;65509;42.816;74.648;2023-04-29T07:15:19;39.08;;;6.88;;
76617;SDS011;65509;42.816;74.648;2023-04-29T07:17:48;47.85;;;8.55;;
76617;SDS011;65509;42.816;74.648;2023-04-29T07:20:13;45.10;;;7.28;;
76617;SDS011;65509;42.816;74.648;2023-04-29T07:22:39;44.85;;;11.23;;
76617;SDS011;65509;42.816;74.648;2023-04-29T07:25:05;60.78;;;11.68;;
76617;SDS011;65509;42.816;74.648;2023-04-29T07:27:34;41.45;;;7.80;;
76617;SDS011;65509;42.816;74.648;2023-04-29T07:30:00;32.83;;;6.07;;
76617;SDS011;65509;42.816;74.648;2023-04-29T07:32:26;30.60;;;5.70;;
76617;SDS011;65509;42.816;74.648;2023-04-29T07:34:51;24.20;;;4.95;;
76617;SDS011;65509;42.816;74.648;2023-04-29T07:37:17;36.45;;;6.90;;
76617;SDS011;65509;42.816;74.648;2023-04-29T07:39:43;34.97;;;6.10;;
76617;SDS011;65509;42.816;74.648;2023-04-29T07:42:09;32.75;;;6.30;;
76617;SDS011;65509;42.816;74.648;2023-04-29T07:44:34;39.72;;;6.72;;
76617;SDS011;65509;42.816;74.648;2023-04-29T07:47:00;40.80;;;8.52;;
76617;SDS011;65509;42.816;74.648;2023-04-29T07:49:26;31.30;;;6.03;;
76617;SDS011;65509;42.816;74.648;2023-04-29T07:51:52;38.42;;;6.53;;
76617;SDS011;65509;42.816;74.648;2023-04-29T07:54:18;36.28;;;7.30;;
76617;SDS011;65509;42.816;74.648;2023-04-29T07:56:46;47.33;;;8.77;;
76617;SDS011;65509;42.816;74.648;2023-04-29T07:59:12;37.33;;;6.82;;
76617;SDS011;65509;42.816;74.648;2023-04-29T08:01:39;39.00;;;6.75;;
76617;SDS011;65509;42.816;74.648;2023-04-29T08:04:05;39.63;;;9.43;;
76617;SDS011;65509;42.816;74.648;2023-04-29T08:06:31;52.00;;;7.97;;
76617;SDS011;65509;42.816;74.648;2023-04-29T08:08:57;53.58;;;10.77;;
76617;SDS011;65509;42.816;74.648;2023-04-29T08:11:22;39.80;;;9.65;;
76617;SDS011;65509;42.816;74.648;2023-04-29T08:13:49;52.97;;;9.68;;
76617;SDS011;65509;42.816;74.648;2023-04-29T08:16:15;42.85;;;7.78;;
76617;SDS011;65509;42.816;74.648;2023-04-29T08:18:40;58.00;;;7.55;;
76617;SDS011;65509;42.816;74.648;2023-04-29T08:21:06;47.53;;;8.25;;
76617;SDS011;65509;42.816;74.648;2023-04-29T08:23:33;49.55;;;6.82;;
76617;SDS011;65509;42.816;74.648;2023-04-29T08:25:59;48.85;;;11.80;;
76617;SDS011;65509;42.816;74.648;2023-04-29T08:28:25;35.83;;;7.22;;
76617;SDS011;65509;42.816;74.648;2023-04-29T08:30:52;37.47;;;7.15;;
76617;SDS011;65509;42.816;74.648;2023-04-29T08:33:17;38.38;;;6.70;;
76617;SDS011;65509;42.816;74.648;2023-04-29T08:35:43;46.70;;;9.45;;
76617;SDS011;65509;42.816;74.648;2023-04-29T08:38:09;48.03;;;8.45;;
76617;SDS011;65509;42.816;74.648;2023-04-29T08:40:35;44.92;;;8.60;;
76617;SDS011;65509;42.816;74.648;2023-04-29T08:43:01;36.65;;;6.78;;
76617;SDS011;65509;42.816;74.648;2023-04-29T08:45:30;35.22;;;7.43;;
76617;SDS011;65509;42.816;74.648;2023-04-29T08:47:56;46.30;;;7.28;;
76617;SDS011;65509;42.816;74.648;2023-04-29T08:50:25;38.53;;;7.63;;
76617;SDS011;65509;42.816;74.648;2023-04-29T08:52:52;36.70;;;7.97;;
76617;SDS011;65509;42.816;74.648;2023-04-29T08:55:25;42.95;;;8.75;;
76617;SDS011;65509;42.816;74.648;2023-04-29T08:57:50;39.90;;;7.53;;
76617;SDS011;65509;42.816;74.648;2023-04-29T09:00:18;50.78;;;7.82;;
76617;SDS011;65509;42.816;74.648;2023-04-29T09:02:45;47.05;;;9.50;;
76617;SDS011;65509;42.816;74.648;2023-04-29T09:05:14;53.65;;;10.80;;
76617;SDS011;65509;42.816;74.648;2023-04-29T09:07:40;36.80;;;9.15;;
76617;SDS011;65509;42.816;74.648;2023-04-29T09:10:05;60.15;;;9.55;;
76617;SDS011;65509;42.816;74.648;2023-04-29T09:12:31;34.13;;;5.95;;
76617;SDS011;65509;42.816;74.648;2023-04-29T09:14:57;37.90;;;10.63;;
76617;SDS011;65509;42.816;74.648;2023-04-29T09:25:34;49.95;;;8.95;;
76617;SDS011;65509;42.816;74.648;2023-04-29T09:28:15;40.13;;;7.43;;
76617;SDS011;65509;42.816;74.648;2023-04-29T09:30:46;45.85;;;7.60;;
76617;SDS011;65509;42.816;74.648;2023-04-29T09:33:14;46.80;;;8.70;;
76617;SDS011;65509;42.816;74.648;2023-04-29T09:35:41;47.90;;;6.63;;
76617;SDS011;65509;42.816;74.648;2023-04-29T09:38:08;46.50;;;7.68;;
76617;SDS011;65509;42.816;74.648;2023-04-29T09:40:33;44.13;;;6.32;;
76617;SDS011;65509;42.816;74.648;2023-04-29T09:49:24;33.90;;;5.70;;
76617;SDS011;65509;42.816;74.648;2023-04-29T09:52:00;64.25;;;8.60;;
76617;SDS011;65509;42.816;74.648;2023-04-29T09:54:32;55.67;;;8.50;;
76617;SDS011;65509;42.816;74.648;2023-04-29T09:56:58;56.88;;;7.55;;
76617;SDS011;65509;42.816;74.648;2023-04-29T09:59:24;91.55;;;9.15;;
76617;SDS011;65509;42.816;74.648;2023-04-29T10:01:54;126.68;;;10.98;;
76617;SDS011;65509;42.816;74.648;2023-04-29T10:04:20;117.90;;;10.30;;
76617;SDS011;65509;42.816;74.648;2023-04-29T10:06:50;66.90;;;7.28;;
76617;SDS011;65509;42.816;74.648;2023-04-29T10:09:16;46.90;;;6.97;;
76617;SDS011;65509;42.816;74.648;2023-04-29T10:11:47;46.38;;;6.60;;
76617;SDS011;65509;42.816;74.648;2023-04-29T10:14:17;42.53;;;5.85;;
76617;SDS011;65509;42.816;74.648;2023-04-29T10:16:47;49.30;;;6.15;;
76617;SDS011;65509;42.816;74.648;2023-04-29T10:19:26;58.88;;;6.53;;
76617;SDS011;65509;42.816;74.648;2023-04-29T10:21:57;94.03;;;8.88;;
76617;SDS011;65509;42.816;74.648;2023-04-29T10:24:23;64.20;;;6.30;;
76617;SDS011;65509;42.816;74.648;2023-04-29T10:26:50;46.72;;;8.13;;
76617;SDS011;65509;42.816;74.648;2023-04-29T10:29:16;43.30;;;5.63;;
76617;SDS011;65509;42.816;74.648;2023-04-29T10:31:42;33.15;;;5.55;;
76617;SDS011;65509;42.816;74.648;2023-04-29T10:34:07;50.28;;;10.20;;
76617;SDS011;65509;42.816;74.648;2023-04-29T10:36:33;39.10;;;6.25;;
76617;SDS011;65509;42.816;74.648;2023-04-29T10:38:59;46.45;;;6.70;;
76617;SDS011;65509;42.816;74.648;2023-04-29T10:41:33;46.05;;;6.55;;
76617;SDS011;65509;42.816;74.648;2023-04-29T10:43:59;42.47;;;6.03;;
76617;SDS011;65509;42.816;74.648;2023-04-29T10:46:25;60.03;;;7.93;;
76617;SDS011;65509;42.816;74.648;2023-04-29T10:49:04;51.97;;;8.60;;
76617;SDS011;65509;42.816;74.648;2023-04-29T10:51:31;48.75;;;8.52;;
76617;SDS011;65509;42.816;74.648;2023-04-29T10:54:01;45.20;;;7.90;;
76617;SDS011;65509;42.816;74.648;2023-04-29T10:59:11;71.80;;;8.68;;
76617;SDS011;65509;42.816;74.648;2023-04-29T11:01:41;33.92;;;6.45;;
76617;SDS011;65509;42.816;74.648;2023-04-29T11:04:06;41.80;;;6.53;;
76617;SDS011;65509;42.816;74.648;2023-04-29T11:09:11;41.22;;;6.47;;
76617;SDS011;65509;42.816;74.648;2023-04-29T11:11:41;41.88;;;5.50;;
76617;SDS011;65509;42.816;74.648;2023-04-29T11:14:08;44.28;;;6.75;;
76617;SDS011;65509;42.816;74.648;2023-04-29T11:16:35;35.17;;;6.28;;
76617;SDS011;65509;42.816;74.648;2023-04-29T11:19:08;51.92;;;5.97;;
76617;SDS011;65509;42.816;74.648;2023-04-29T11:21:36;42.75;;;5.72;;
76617;SDS011;65509;42.816;74.648;2023-04-29T11:24:03;37.38;;;7.85;;
76617;SDS011;65509;42.816;74.648;2023-04-29T11:26:33;32.70;;;5.47;;
76617;SDS011;65509;42.816;74.648;2023-04-29T11:28:58;24.10;;;4.57;;
76617;SDS011;65509;42.816;74.648;2023-04-29T11:31:28;30.65;;;4.70;;
76617;SDS011;65509;42.816;74.648;2023-04-29T11:33:57;31.00;;;5.13;;
76617;SDS011;65509;42.816;74.648;2023-04-29T11:36:25;27.70;;;4.55;;
76617;SDS011;65509;42.816;74.648;2023-04-29T11:38:53;30.85;;;5.68;;
76617;SDS011;65509;42.816;74.648;2023-04-29T11:41:20;51.10;;;6.25;;
76617;SDS011;65509;42.816;74.648;2023-04-29T11:44:01;32.13;;;5.45;;
76617;SDS011;65509;42.816;74.648;2023-04-29T11:46:32;30.58;;;4.85;;
76617;SDS011;65509;42.816;74.648;2023-04-29T11:48:58;33.22;;;6.20;;
76617;SDS011;65509;42.816;74.648;2023-04-29T11:51:24;29.42;;;5.95;;
76617;SDS011;65509;42.816;74.648;2023-04-29T11:53:50;32.67;;;5.20;;
76617;SDS011;65509;42.816;74.648;2023-04-29T11:56:15;29.52;;;5.15;;
76617;SDS011;65509;42.816;74.648;2023-04-29T11:58:41;81.10;;;33.55;;
76617;SDS011;65509;42.816;74.648;2023-04-29T12:01:08;59.28;;;17.08;;
76617;SDS011;65509;42.816;74.648;2023-04-29T12:03:33;41.63;;;7.40;;
76617;SDS011;65509;42.816;74.648;2023-04-29T12:06:00;32.85;;;5.78;;
76617;SDS011;65509;42.816;74.648;2023-04-29T12:08:26;38.33;;;6.20;;
76617;SDS011;65509;42.816;74.648;2023-04-29T12:10:56;46.72;;;5.60;;
76617;SDS011;65509;42.816;74.648;2023-04-29T12:13:27;26.07;;;5.43;;
76617;SDS011;65509;42.816;74.648;2023-04-29T12:15:52;26.83;;;6.38;;
76617;SDS011;65509;42.816;74.648;2023-04-29T12:18:18;33.47;;;5.75;;
76617;SDS011;65509;42.816;74.648;2023-04-29T12:20:47;30.33;;;6.38;;
76617;SDS011;65509;42.816;74.648;2023-04-29T12:23:19;30.30;;;6.75;;
76617;SDS011;65509;42.816;74.648;2023-04-29T12:25:50;34.50;;;5.68;;
76617;SDS011;65509;42.816;74.648;2023-04-29T12:28:16;29.35;;;4.65;;
76617;SDS011;65509;42.816;74.648;2023-04-29T12:30:46;26.95;;;5.20;;
76617;SDS011;65509;42.816;74.648;2023-04-29T12:33:29;30.33;;;4.97;;
76617;SDS011;65509;42.816;74.648;2023-04-29T12:35:56;33.65;;;8.80;;
76617;SDS011;65509;42.816;74.648;2023-04-29T12:38:23;29.40;;;8.77;;
76617;SDS011;65509;42.816;74.648;2023-04-29T12:41:10;38.08;;;9.25;;
76617;SDS011;65509;42.816;74.648;2023-04-29T12:43:38;33.20;;;8.10;;
76617;SDS011;65509;42.816;74.648;2023-04-29T12:46:06;25.42;;;6.32;;
76617;SDS011;65509;42.816;74.648;2023-04-29T12:48:35;28.23;;;6.57;;
76617;SDS011;65509;42.816;74.648;2023-04-29T12:51:07;31.58;;;5.82;;
76617;SDS011;65509;42.816;74.648;2023-04-29T13:00:19;24.83;;;4.93;;
76617;SDS011;65509;42.816;74.648;2023-04-29T13:02:38;28.83;;;5.28;;
76617;SDS011;65509;42.816;74.648;2023-04-29T13:05:06;22.30;;;5.30;;
76617;SDS011;65509;42.816;74.648;2023-04-29T13:07:32;27.45;;;5.15;;
76617;SDS011;65509;42.816;74.648;2023-04-29T13:10:00;29.65;;;5.40;;
76617;SDS011;65509;42.816;74.648;2023-04-29T13:12:26;26.38;;;5.47;;
76617;SDS011;65509;42.816;74.648;2023-04-29T13:14:51;25.58;;;5.43;;
76617;SDS011;65509;42.816;74.648;2023-04-29T13:17:17;24.42;;;5.07;;
76617;SDS011;65509;42.816;74.648;2023-04-29T13:22:30;37.00;;;6.53;;
76617;SDS011;65509;42.816;74.648;2023-04-29T13:24:56;26.63;;;5.18;;
76617;SDS011;65509;42.816;74.648;2023-04-29T13:27:22;19.42;;;4.43;;
76617;SDS011;65509;42.816;74.648;2023-04-29T13:29:50;33.75;;;5.85;;
76617;SDS011;65509;42.816;74.648;2023-04-29T13:32:15;29.67;;;5.55;;
76617;SDS011;65509;42.816;74.648;2023-04-29T13:34:41;25.20;;;5.88;;
76617;SDS011;65509;42.816;74.648;2023-04-29T13:37:09;24.15;;;4.43;;
76617;SDS011;65509;42.816;74.648;2023-04-29T13:39:34;23.25;;;5.13;;
76617;SDS011;65509;42.816;74.648;2023-04-29T13:42:06;24.38;;;5.68;;
76617;SDS011;65509;42.816;74.648;2023-04-29T13:44:31;38.88;;;5.93;;
76617;SDS011;65509;42.816;74.648;2023-04-29T13:46:57;33.13;;;7.40;;
76617;SDS011;65509;42.816;74.648;2023-04-29T13:49:29;42.63;;;7.50;;
76617;SDS011;65509;42.816;74.648;2023-04-29T13:51:54;47.72;;;10.00;;
76617;SDS011;65509;42.816;74.648;2023-04-29T13:54:23;41.75;;;9.20;;
76617;SDS011;65509;42.816;74.648;2023-04-29T13:56:51;24.90;;;6.82;;
76617;SDS011;65509;42.816;74.648;2023-04-29T13:59:16;33.47;;;6.40;;
76617;SDS011;65509;42.816;74.648;2023-04-29T14:01:42;33.00;;;5.93;;
76617;SDS011;65509;42.816;74.648;2023-04-29T14:04:08;23.02;;;5.28;;
76617;SDS011;65509;42.816;74.648;2023-04-29T14:06:34;49.28;;;6.30;;
76617;SDS011;65509;42.816;74.648;2023-04-29T14:09:03;30.50;;;5.30;;
76617;SDS011;65509;42.816;74.648;2023-04-29T14:11:28;22.75;;;4.97;;
76617;SDS011;65509;42.816;74.648;2023-04-29T14:13:57;46.20;;;5.95;;
76617;SDS011;65509;42.816;74.648;2023-04-29T14:16:22;23.73;;;5.03;;
76617;SDS011;65509;42.816;74.648;2023-04-29T14:18:48;29.05;;;5.28;;
76617;SDS011;65509;42.816;74.648;2023-04-29T14:21:13;27.35;;;4.15;;
76617;SDS011;65509;42.816;74.648;2023-04-29T14:23:41;24.77;;;4.45;;
76617;SDS011;65509;42.816;74.648;2023-04-29T14:26:07;24.55;;;4.22;;
76617;SDS011;65509;42.816;74.648;2023-04-29T14:28:33;25.15;;;4.28;;
76617;SDS011;65509;42.816;74.648;2023-04-29T14:31:00;32.88;;;5.35;;
76617;SDS011;65509;42.816;74.648;2023-04-29T14:36:23;30.05;;;6.60;;
76617;SDS011;65509;42.816;74.648;2023-04-29T14:38:55;38.15;;;7.05;;
76617;SDS011;65509;42.816;74.648;2023-04-29T14:41:20;21.75;;;4.40;;
76617;SDS011;65509;42.816;74.648;2023-04-29T14:43:49;20.73;;;4.25;;
76617;SDS011;65509;42.816;74.648;2023-04-29T14:46:20;32.70;;;5.03;;
76617;SDS011;65509;42.816;74.648;2023-04-29T14:48:47;22.20;;;4.65;;
76617;SDS011;65509;42.816;74.648;2023-04-29T14:51:13;23.80;;;3.58;;
76617;SDS011;65509;42.816;74.648;2023-04-29T14:53:41;27.08;;;4.57;;
76617;SDS011;65509;42.816;74.648;2023-04-29T14:56:10;26.40;;;4.45;;
76617;SDS011;65509;42.816;74.648;2023-04-29T14:58:38;39.35;;;5.68;;
76617;SDS011;65509;42.816;74.648;2023-04-29T15:01:03;29.42;;;5.00;;
76617;SDS011;65509;42.816;74.648;2023-04-29T15:03:28;24.48;;;4.13;;
76617;SDS011;65509;42.816;74.648;2023-04-29T15:05:54;26.98;;;4.57;;